Time;durP1;ratioP1;P1;durP2;ratioP2;P2;SDS_P1;SDS_P2;PMS_P1;PMS_P2;Temp;Humidity;BMP_temperature;BMP_pressure;BME280_temperature;BME280_humidity;BME280_pressure;Samples;Min_cycle;Max_cycle;Signal;HPM_P1;HPM_P2
2022/06/15 00:01:44;;;;;;;3.10;1.70;;;21.10;69.90;;;;;;6239091;23;20195;-86
2022/06/15 00:04:09;;;;;;;5.40;2.07;;;21.10;69.60;;;;;;6239652;23;20523;-86
2022/06/15 00:06:40;;;;;;;8.13;1.90;;;21.20;69.30;;;;;;6239308;23;20592;-86
2022/06/15 00:09:07;;;;;;;4.67;1.60;;;21.50;69.00;;;;;;6239355;23;20148;-86
2022/06/15 00:11:35;;;;;;;5.97;2.30;;;21.70;68.30;;;;;;6240267;23;20143;-86
2022/06/15 00:14:08;;;;;;;5.93;2.00;;;21.50;68.30;;;;;;6239103;23;20148;-86
2022/06/15 00:16:34;;;;;;;4.30;1.63;;;21.40;68.70;;;;;;6239602;23;20152;-85
2022/06/15 00:19:00;;;;;;;7.20;2.10;;;21.30;69.60;;;;;;6239453;23;20174;-86
2022/06/15 00:21:26;;;;;;;5.87;2.10;;;21.40;68.40;;;;;;6239729;23;20158;-86
2022/06/15 00:23:51;;;;;;;4.43;2.10;;;21.40;68.60;;;;;;6239399;23;20179;-85
2022/06/15 00:26:17;;;;;;;4.33;1.80;;;21.40;68.40;;;;;;6239338;23;20255;-86
2022/06/15 00:28:43;;;;;;;4.17;1.90;;;21.30;68.90;;;;;;6239301;23;20144;-86
2022/06/15 00:31:09;;;;;;;8.30;2.23;;;21.00;69.90;;;;;;6239597;22;20190;-85
2022/06/15 00:33:35;;;;;;;5.60;1.93;;;21.00;70.50;;;;;;6239365;23;20151;-86
2022/06/15 00:36:05;;;;;;;8.57;2.10;;;20.80;70.90;;;;;;6239413;23;20192;-85
2022/06/15 00:38:40;;;;;;;6.20;2.07;;;20.60;72.10;;;;;;6239435;23;20222;-86
2022/06/15 00:41:09;;;;;;;3.87;1.97;;;20.40;72.40;;;;;;6239748;23;20233;-86
2022/06/15 00:43:39;;;;;;;8.37;1.90;;;20.30;72.60;;;;;;6239158;23;20151;-86
2022/06/15 00:46:17;;;;;;;3.20;1.80;;;20.20;73.30;;;;;;6213951;23;20527;-86
2022/06/15 00:48:46;;;;;;;3.27;1.60;;;20.30;73.70;;;;;;6214171;23;20156;-86
2022/06/15 00:51:13;;;;;;;7.13;2.03;;;20.20;73.90;;;;;;6239408;23;20148;-86
2022/06/15 00:53:39;;;;;;;5.57;1.73;;;20.20;73.80;;;;;;6239386;23;20175;-86
2022/06/15 00:56:06;;;;;;;4.43;1.80;;;20.10;73.90;;;;;;6239227;23;20243;-86
2022/06/15 00:58:32;;;;;;;6.00;1.90;;;20.10;74.00;;;;;;6239186;23;20163;-85
2022/06/15 01:00:58;;;;;;;6.33;1.97;;;20.00;74.60;;;;;;6239268;23;20167;-85
2022/06/15 01:03:23;;;;;;;6.97;1.90;;;19.90;75.10;;;;;;6239338;23;20476;-85
2022/06/15 01:06:05;;;;;;;3.73;2.00;;;19.90;76.20;;;;;;6239283;23;20171;-85
2022/06/15 01:08:41;;;;;;;5.93;2.30;;;19.80;75.20;;;;;;6239580;23;20148;-85
2022/06/15 01:11:34;;;;;;;5.70;2.30;;;19.70;75.10;;;;;;6213916;23;20149;-85
2022/06/15 01:14:05;;;;;;;6.27;2.10;;;19.70;75.40;;;;;;6213641;23;20214;-85
2022/06/15 01:16:44;;;;;;;7.10;2.43;;;19.60;75.60;;;;;;6214028;23;20574;-86
2022/06/15 01:19:55;;;;;;;4.53;1.77;;;19.60;75.70;;;;;;6239006;23;20168;-86
2022/06/15 01:22:40;;;;;;;5.80;2.07;;;19.60;76.10;;;;;;6209089;23;20163;-85
2022/06/15 01:25:25;;;;;;;6.83;2.20;;;19.40;76.90;;;;;;6239151;23;20154;-86
2022/06/15 01:28:09;;;;;;;4.33;2.60;;;19.30;77.90;;;;;;6198038;23;20156;-85
2022/06/15 01:30:54;;;;;;;5.67;2.10;;;19.30;77.90;;;;;;6239015;22;20183;-85
2022/06/15 01:33:56;;;;;;;8.20;2.20;;;19.40;77.60;;;;;;6239260;23;20160;-85
2022/06/15 01:36:42;;;;;;;8.40;2.50;;;19.40;78.00;;;;;;6185345;23;20171;-85
2022/06/15 01:39:20;;;;;;;3.77;2.20;;;19.20;78.60;;;;;;6240171;23;20159;-85
2022/06/15 01:42:30;;;;;;;3.63;1.90;;;19.20;79.10;;;;;;6240958;23;20156;-85
2022/06/15 01:45:01;;;;;;;5.83;2.30;;;19.10;79.60;;;;;;6154675;23;20159;-85
2022/06/15 01:47:30;;;;;;;6.67;2.40;;;19.10;80.00;;;;;;6225813;23;20590;-85
2022/06/15 01:50:05;;;;;;;4.37;2.30;;;19.00;80.20;;;;;;6240926;23;20161;-85
2022/06/15 01:52:41;;;;;;;3.87;2.27;;;19.00;80.50;;;;;;6240677;23;20178;-85
2022/06/15 01:55:16;;;;;;;4.33;2.70;;;19.00;80.70;;;;;;6240534;23;20206;-86
2022/06/15 01:57:44;;;;;;;4.93;2.70;;;18.80;80.80;;;;;;6241316;23;20144;-87
2022/06/15 02:00:17;;;;;;;4.30;2.37;;;19.00;80.60;;;;;;6240671;23;20152;-86
2022/06/15 02:03:13;;;;;;;5.13;2.47;;;19.10;80.30;;;;;;6240801;23;20166;-86
2022/06/15 02:05:52;;;;;;;5.07;2.30;;;19.10;80.60;;;;;;6215381;23;20604;-85
2022/06/15 02:08:41;;;;;;;4.77;2.77;;;19.10;80.80;;;;;;6241109;23;20634;-85
2022/06/15 02:11:27;;;;;;;7.17;2.40;;;19.00;80.80;;;;;;6214247;23;20220;-85
2022/06/15 02:14:16;;;;;;;8.60;2.70;;;19.00;80.80;;;;;;6214439;23;20472;-85
2022/06/15 02:16:51;;;;;;;4.97;2.20;;;18.90;81.30;;;;;;6216673;23;20143;-85
2022/06/15 02:19:21;;;;;;;6.10;2.60;;;18.70;81.80;;;;;;6215394;23;20592;-85
2022/06/15 02:21:52;;;;;;;4.93;2.67;;;18.80;82.10;;;;;;6240165;23;20145;-85
2022/06/15 02:24:21;;;;;;;5.80;2.80;;;18.80;81.80;;;;;;6240313;23;20155;-85
2022/06/15 02:26:49;;;;;;;7.03;2.97;;;18.80;82.90;;;;;;6240405;23;20159;-85
2022/06/15 02:29:24;;;;;;;5.73;2.80;;;18.70;82.90;;;;;;6240392;23;20151;-85
2022/06/15 02:31:50;;;;;;;7.67;2.73;;;18.90;82.40;;;;;;6240491;22;20181;-85
2022/06/15 02:34:15;;;;;;;6.30;2.70;;;18.80;82.60;;;;;;6240684;23;20178;-85
2022/06/15 02:36:42;;;;;;;8.77;2.60;;;18.70;83.20;;;;;;6240710;23;20225;-85
2022/06/15 02:39:08;;;;;;;5.23;2.93;;;18.60;83.40;;;;;;6239861;23;20153;-85
2022/06/15 02:41:34;;;;;;;4.80;2.80;;;18.70;83.90;;;;;;6240466;23;20146;-85
2022/06/15 02:44:03;;;;;;;7.43;3.30;;;18.60;83.80;;;;;;6216893;23;20592;-85
2022/06/15 02:46:32;;;;;;;6.07;2.73;;;18.50;84.80;;;;;;6239950;23;20289;-85
2022/06/15 02:48:58;;;;;;;5.70;3.27;;;18.70;83.80;;;;;;6240731;23;20147;-85
2022/06/15 02:51:41;;;;;;;5.50;3.50;;;18.60;84.30;;;;;;6239925;23;20162;-85
2022/06/15 02:54:24;;;;;;;5.63;2.87;;;18.40;85.20;;;;;;6239701;23;20150;-85
2022/06/15 02:56:50;;;;;;;7.93;3.00;;;18.30;86.10;;;;;;6240282;23;20196;-85
2022/06/15 02:59:16;;;;;;;6.40;3.07;;;18.20;86.50;;;;;;6240337;23;20146;-85
2022/06/15 03:01:42;;;;;;;8.03;3.10;;;18.10;87.20;;;;;;6240123;23;20170;-85
2022/06/15 03:04:07;;;;;;;10.87;3.23;;;18.10;87.40;;;;;;6240159;23;20155;-85
2022/06/15 03:06:33;;;;;;;5.80;2.77;;;18.00;88.00;;;;;;6240482;23;20155;-85
2022/06/15 03:08:59;;;;;;;6.50;2.73;;;18.00;88.40;;;;;;6239943;23;20145;-85
2022/06/15 03:11:25;;;;;;;7.67;2.90;;;18.10;88.30;;;;;;6239703;23;20162;-85
2022/06/15 03:13:52;;;;;;;5.73;3.20;;;18.10;88.10;;;;;;6240014;23;20150;-85
2022/06/15 03:16:18;;;;;;;10.03;3.43;;;18.30;87.60;;;;;;6239864;23;20153;-85
2022/06/15 03:18:43;;;;;;;6.80;3.20;;;18.20;88.50;;;;;;6240023;23;20151;-85
2022/06/15 03:21:09;;;;;;;7.40;3.20;;;18.20;88.50;;;;;;6239725;23;20190;-86
2022/06/15 03:23:35;;;;;;;7.57;3.07;;;18.00;89.00;;;;;;6239746;23;20165;-85
2022/06/15 03:26:02;;;;;;;7.30;3.40;;;17.90;90.30;;;;;;6239659;23;20162;-85
2022/06/15 03:28:29;;;;;;;6.63;3.03;;;18.00;90.00;;;;;;6240236;23;20153;-85
2022/06/15 03:30:54;;;;;;;9.20;3.40;;;17.90;90.10;;;;;;6239742;22;20178;-85
2022/06/15 03:33:20;;;;;;;8.93;3.43;;;17.70;90.50;;;;;;6239549;23;20470;-85
2022/06/15 03:35:47;;;;;;;8.13;3.13;;;17.70;90.80;;;;;;6239746;23;20182;-85
2022/06/15 03:38:13;;;;;;;7.40;3.03;;;17.60;91.10;;;;;;6239868;23;20211;-85
2022/06/15 03:40:44;;;;;;;7.60;3.20;;;17.50;91.50;;;;;;6239841;23;20694;-85
2022/06/15 03:43:10;;;;;;;8.80;3.17;;;17.60;91.50;;;;;;6239737;23;20149;-85
2022/06/15 03:45:36;;;;;;;7.40;3.17;;;17.70;91.20;;;;;;6239663;23;20150;-85
2022/06/15 03:48:03;;;;;;;9.13;3.37;;;17.70;91.40;;;;;;6240024;23;20146;-85
2022/06/15 06:16:20;;;;;;;8.20;5.80;;;19.50;90.00;;;;;;6213132;22;20239;-85
2022/06/15 06:18:47;;;;;;;17.60;6.20;;;19.60;90.30;;;;;;6219852;23;20161;-93
2022/06/15 08:35:47;;;;;;;9.93;5.07;;;22.60;83.40;;;;;;6199611;22;20202;-94
2022/06/15 16:33:32;;;;;;;5.47;2.58;;;41.40;44.10;;;;;;6176483;23;20664;-95
2022/06/15 16:36:02;;;;;;;7.75;2.22;;;41.80;43.20;;;;;;6192430;23;20191;-95
2022/06/15 16:38:28;;;;;;;7.35;1.92;;;41.80;43.10;;;;;;6195742;23;20160;-96
2022/06/15 18:13:16;;;;;;;4.20;2.25;;;37.10;46.40;;;;;;6156769;23;20193;-86
2022/06/15 18:15:43;;;;;;;8.43;2.00;;;37.00;46.50;;;;;;6156985;23;20216;-86
2022/06/15 18:18:09;;;;;;;5.40;2.25;;;36.90;47.00;;;;;;6155160;23;20228;-85
2022/06/15 20:09:10;;;;;;;6.17;2.17;;;29.80;54.40;;;;;;6186201;22;20299;-91
2022/06/15 20:11:37;;;;;;;3.20;1.43;;;29.80;54.10;;;;;;6181573;23;20236;-92
2022/06/15 20:14:03;;;;;;;4.87;1.77;;;29.50;54.50;;;;;;6181856;23;20172;-92
2022/06/15 20:16:33;;;;;;;4.73;2.13;;;29.40;54.80;;;;;;6181543;23;20617;-93
2022/06/15 20:18:58;;;;;;;5.87;2.20;;;29.10;54.90;;;;;;6181854;23;20145;-91
2022/06/15 20:21:24;;;;;;;4.13;2.20;;;29.30;54.80;;;;;;6181133;23;20588;-91
2022/06/15 20:23:52;;;;;;;25.83;3.73;;;28.90;55.30;;;;;;6181134;23;20171;-92
2022/06/15 20:26:21;;;;;;;6.73;2.00;;;28.70;55.60;;;;;;6181126;23;20153;-92
2022/06/15 20:28:52;;;;;;;3.97;1.83;;;28.70;55.60;;;;;;6176292;23;20169;-92
2022/06/15 20:31:21;;;;;;;11.90;1.90;;;28.60;55.80;;;;;;6150521;23;20491;-91
2022/06/15 20:33:47;;;;;;;6.57;2.20;;;28.70;55.60;;;;;;6151902;23;20225;-92
2022/06/15 20:36:14;;;;;;;6.13;2.00;;;28.60;55.60;;;;;;6154785;23;20177;-93
2022/06/15 20:38:40;;;;;;;2.87;1.97;;;28.50;55.70;;;;;;6154710;23;20579;-93
2022/06/15 20:41:07;;;;;;;11.60;2.13;;;28.40;56.30;;;;;;6155227;23;20160;-90
2022/06/15 20:43:33;;;;;;;4.07;1.97;;;28.50;55.70;;;;;;6155285;23;20152;-92
2022/06/15 20:46:01;;;;;;;8.43;2.00;;;28.30;56.30;;;;;;6156037;23;20149;-91
2022/06/15 20:48:29;;;;;;;6.20;1.90;;;28.40;56.10;;;;;;6155166;23;20157;-93
2022/06/15 20:50:55;;;;;;;4.80;2.00;;;28.20;56.50;;;;;;6156392;23;20649;-91
2022/06/15 20:53:20;;;;;;;5.07;1.90;;;28.10;57.20;;;;;;6156435;23;20145;-90
2022/06/15 20:58:30;;;;;;;11.10;2.63;;;27.80;57.30;;;;;;6157915;23;20149;-90
2022/06/15 21:00:56;;;;;;;3.77;1.90;;;27.70;57.80;;;;;;6155838;23;20153;-91
2022/06/15 21:03:22;;;;;;;2.57;1.70;;;27.70;57.90;;;;;;6156159;23;20149;-90
2022/06/15 21:05:48;;;;;;;3.07;1.73;;;27.50;58.70;;;;;;6156146;23;20602;-90
2022/06/15 21:08:14;;;;;;;4.27;1.63;;;27.50;58.70;;;;;;6156407;23;20173;-90
2022/06/15 21:18:55;;;;;;;6.07;2.07;;;27.40;60.10;;;;;;6157613;23;20211;-90
2022/06/15 21:21:20;;;;;;;4.53;2.07;;;27.20;60.90;;;;;;6156562;23;20150;-91
2022/06/15 21:23:46;;;;;;;5.20;2.00;;;27.40;60.90;;;;;;6156651;23;20196;-90
2022/06/15 21:26:12;;;;;;;7.30;2.27;;;27.30;61.60;;;;;;6155943;23;20575;-90
2022/06/15 21:28:39;;;;;;;5.97;2.33;;;27.20;62.10;;;;;;6156435;23;20173;-90
2022/06/15 21:31:11;;;;;;;5.20;2.20;;;27.50;61.80;;;;;;6155837;23;20154;-90
2022/06/15 21:33:38;;;;;;;3.67;2.13;;;27.50;62.10;;;;;;6156437;23;20192;-90
2022/06/15 21:36:04;;;;;;;4.73;2.50;;;27.30;62.90;;;;;;6156443;23;20737;-90
2022/06/15 21:38:29;;;;;;;4.20;2.40;;;27.20;63.30;;;;;;6156871;23;20157;-91
2022/06/15 21:40:56;;;;;;;6.80;2.90;;;27.20;63.30;;;;;;6156777;23;20149;-92
2022/06/15 21:43:22;;;;;;;5.43;2.60;;;27.30;63.30;;;;;;6156623;23;20137;-90
2022/06/15 21:45:48;;;;;;;6.73;2.60;;;27.60;63.10;;;;;;6156745;23;20157;-92
2022/06/15 21:48:15;;;;;;;6.93;2.73;;;27.60;63.10;;;;;;6156074;23;20145;-91
2022/06/15 21:50:45;;;;;;;7.63;2.73;;;27.50;63.40;;;;;;6155717;23;20145;-91
2022/06/15 21:53:13;;;;;;;6.77;2.53;;;27.60;63.40;;;;;;6156329;23;20146;-90
2022/06/15 21:55:39;;;;;;;4.60;2.47;;;27.40;63.80;;;;;;6155317;23;20173;-92
2022/06/15 21:58:05;;;;;;;5.43;2.30;;;27.40;64.00;;;;;;6155891;23;20489;-88
2022/06/15 22:00:34;;;;;;;6.13;2.93;;;27.30;64.20;;;;;;6155968;23;20149;-88
2022/06/15 22:03:01;;;;;;;6.13;2.43;;;27.20;64.80;;;;;;6155706;23;20206;-86
2022/06/15 22:05:27;;;;;;;9.63;3.20;;;27.00;65.40;;;;;;6158142;23;20149;-90
2022/06/15 22:07:53;;;;;;;7.63;3.00;;;26.70;66.20;;;;;;6158021;23;20532;-91
2022/06/15 22:10:19;;;;;;;7.23;2.93;;;26.50;66.40;;;;;;6156595;23;20157;-91
2022/06/15 22:12:45;;;;;;;7.50;2.67;;;26.30;66.80;;;;;;6155417;23;20157;-92
2022/06/15 22:15:12;;;;;;;5.47;2.27;;;26.30;66.90;;;;;;6155465;23;20265;-92
